Sct Zurich — V7NG2 — position and weather

sailwx.info

Track history (hours):
 
Tides and Currents Weather Stations Pressure Air Temp Water Temp Dewpoint Dewpoint Depression Visibility Wind Speed Wind Dir Waves Ship Positions

Sct Zurich

Last reported at 2015-Feb-20 16:19 UTC. Time now 2015-Mar-03 04:47 UTC.
Position N 38°21' E 015°42'.
Warning: this ship's position is 10 days out of date.

Length 294 m; draft 11.1 m.

Type: Ship (hazmat cat D). MMSI: 538002956.

Date/timePositionNaut miles runAvg speedWind from/ knotsBaromVisibWave heightAir tempDewpointWater temp
2015-Feb-20 16:19N 38°21' E 015°42'20 0.4
2015-Feb-18 14:27N 38°36' E 015°27'2 2.0
2015-Feb-18 13:11N 38°38' E 015°24'1 1.2
2015-Feb-18 12:12N 38°37' E 015°25'1 1.1
2015-Feb-18 11:22N 38°37' E 015°26'127 4.9
2015-Feb-17 09:33N 40°29' E 014°09'1211.6
2015-Feb-17 08:34N 40°40' E 014°13'11 9.6
2015-Feb-17 07:27N 40°50' E 014°17'0 0.0
2015-Feb-17 06:31N 40°50' E 014°17'0 0.0
2015-Feb-17 04:10N 40°50' E 014°17'0 0.0
2015-Feb-17 00:33N 40°50' E 014°17'0 0.0
2015-Feb-16 23:32N 40°50' E 014°17'0 0.0
2015-Feb-16 22:32N 40°50' E 014°17'0 0.0
2015-Feb-16 21:31N 40°50' E 014°17'0 0.0
2015-Feb-16 20:33N 40°50' E 014°17'0 0.0
2015-Feb-16 19:33N 40°50' E 014°17'0 0.0
2015-Feb-16 18:20N 40°50' E 014°17'0 0.0
2015-Feb-16 15:19N 40°50' E 014°17'0 0.0
2015-Feb-16 14:17N 40°50' E 014°17'0 0.0
2015-Feb-16 13:32N 40°50' E 014°17'1 0.5
2015-Feb-16 12:33N 40°50' E 014°17'4 4.4
2015-Feb-16 11:33N 40°46' E 014°15'1515.3
2015-Feb-16 10:33N 40°37' E 013°59'2221.9
2015-Feb-16 09:33N 40°42' E 013°31'261 7.9
2015-Feb-15 00:33N 44°06' E 009°51'0 0.0
2015-Feb-14 23:33N 44°06' E 009°51'0 0.0
2015-Feb-14 22:33N 44°06' E 009°51'0 0.0
2015-Feb-14 21:33N 44°06' E 009°51'0 0.0
2015-Feb-14 20:33N 44°06' E 009°51'0 0.0
2015-Feb-14 19:33N 44°06' E 009°51'0 0.0
2015-Feb-14 18:33N 44°06' E 009°51'0 0.0
2015-Feb-14 17:33N 44°06' E 009°51'0 0.0
2015-Feb-14 16:33N 44°06' E 009°51'0 0.0
2015-Feb-14 15:33N 44°06' E 009°51'0 0.0
2015-Feb-14 14:33N 44°06' E 009°51'0 0.3
2015-Feb-14 13:33N 44°06' E 009°51'8 8.0
2015-Feb-14 12:33N 43°59' E 009°56'1 1.4
2015-Feb-14 11:33N 43°58' E 009°56'1212.2
2015-Feb-14 10:33N 43°53' E 009°40'1615.5
2015-Feb-14 09:34N 43°46' E 009°21'1615.6
2015-Feb-14 08:34N 43°40' E 009°02'1515.3
2015-Feb-14 07:33N 43°33' E 008°43'6516.0
2015-Feb-14 03:29N 43°04' E 007°22'1516.3
2015-Feb-14 02:34N 42°57' E 007°04'1616.1
2015-Feb-14 01:33N 42°50' E 006°44'1616.0
2015-Feb-14 00:32N 42°45' E 006°23'5914.7
2015-Feb-13 20:31N 43°06' E 005°08'1717.3
2015-Feb-13 19:33N 43°21' E 004°58'7 7.2
2015-Feb-13 18:33N 43°25' E 004°50'0 0.0
2015-Feb-13 17:34N 43°25' E 004°50'0 0.0
2015-Feb-13 16:33N 43°25' E 004°50'0 0.0
2015-Feb-13 15:34N 43°25' E 004°50'0 0.0
2015-Feb-13 14:33N 43°25' E 004°50'0 0.0
2015-Feb-13 13:34N 43°25' E 004°50'0 0.0
2015-Feb-13 12:34N 43°25' E 004°50'0 0.0
2015-Feb-13 11:34N 43°25' E 004°50'0 0.0
2015-Feb-13 10:33N 43°25' E 004°50'0 0.0
2015-Feb-13 09:33N 43°25' E 004°50'0 0.0
2015-Feb-13 08:34N 43°25' E 004°50'0 0.0
2015-Feb-13 07:33N 43°25' E 004°50'0 0.0
2015-Feb-13 06:33N 43°25' E 004°50'0 0.0
2015-Feb-13 05:34N 43°25' E 004°50'0 0.0
2015-Feb-13 04:34N 43°25' E 004°50'0 0.0
2015-Feb-13 03:34N 43°25' E 004°50'2 2.5
2015-Feb-13 02:34N 43°24' E 004°53'9 9.1
2015-Feb-13 01:33N 43°17' E 005°00'1212.3
2015-Feb-13 00:33N 43°05' E 004°55'3013.6
2015-Feb-12 22:23N 42°43' E 004°29'1413.7
2015-Feb-12 21:19N 42°31' E 004°16'3813.8
2015-Feb-12 18:33N 42°02' E 003°43'1414.3
2015-Feb-12 17:33N 41°52' E 003°29'1615.4
2015-Feb-12 16:32N 41°41' E 003°14'1514.6
2015-Feb-12 15:31N 41°30' E 003°00'1714.8
2015-Feb-12 14:23N 41°19' E 002°44'1214.2
2015-Feb-12 13:32N 41°10' E 002°33'1414.4
2015-Feb-12 12:33N 41°00' E 002°20'1515.0
2015-Feb-12 11:33N 40°48' E 002°07'1514.9
2015-Feb-12 10:33N 40°39' E 001°52'1514.7
2015-Feb-12 09:33N 40°29' E 001°38'1414.6
2015-Feb-12 08:33N 40°18' E 001°26'1414.1
2015-Feb-12 07:33N 40°07' E 001°14'1414.4
2015-Feb-12 06:33N 39°56' E 001°02'1414.0
2015-Feb-12 05:34N 39°46' E 000°49'5613.9
2015-Feb-12 01:34N 39°26' W 000°18'1 1.3
2015-Feb-12 00:32N 39°26' W 000°19'0 0.0
2015-Feb-11 23:32N 39°26' W 000°19'0 0.0
2015-Feb-11 22:32N 39°26' W 000°19'0 0.0
2015-Feb-11 21:33N 39°26' W 000°19'0 0.0
2015-Feb-11 20:33N 39°26' W 000°19'0 0.0
2015-Feb-11 19:33N 39°26' W 000°19'0 0.0
2015-Feb-11 18:33N 39°26' W 000°19'0 0.0
2015-Feb-11 17:30N 39°26' W 000°19'0 0.0
2015-Feb-11 16:32N 39°26' W 000°19'0 0.0
2015-Feb-11 15:33N 39°26' W 000°19'0 0.0
2015-Feb-11 14:33N 39°26' W 000°19'0 0.0
2015-Feb-11 13:33N 39°26' W 000°19'0 0.0
2015-Feb-11 12:34N 39°26' W 000°19'0 0.0
2015-Feb-11 11:33N 39°26' W 000°19'0 0.0
2015-Feb-11 10:33N 39°26' W 000°19'0 0.0
2015-Feb-11 09:33N 39°26' W 000°19'0 0.0
2015-Feb-11 08:33N 39°26' W 000°19'0 0.0
2015-Feb-11 07:33N 39°26' W 000°19'0 0.0
2015-Feb-11 06:33N 39°26' W 000°19'0 0.0
2015-Feb-11 05:33N 39°26' W 000°19'3 2.9
2015-Feb-11 04:33N 39°24' W 000°17'1 0.3
2015-Feb-11 02:24N 39°24' W 000°16'  
Track history (hours):
 
Tides and Currents Weather Stations Pressure Air Temp Water Temp Dewpoint Dewpoint Depression Visibility Wind Speed Wind Dir Waves Ship Positions

Sct Zurich

Last reported at 2015-Feb-20 16:19 UTC. Time now 2015-Mar-03 04:47 UTC.
Position N 38°21' E 015°42'.
Warning: this ship's position is 10 days out of date.

Length 294 m; draft 11.1 m.

Type: Ship (hazmat cat D). MMSI: 538002956.

Date/timePositionNaut miles runAvg speedWind from/ knotsBaromVisibWave heightAir tempDewpointWater temp
2015-Feb-20 16:19N 38°21' E 015°42'20 0.4
2015-Feb-18 14:27N 38°36' E 015°27'2 2.0
2015-Feb-18 13:11N 38°38' E 015°24'1 1.2
2015-Feb-18 12:12N 38°37' E 015°25'1 1.1
2015-Feb-18 11:22N 38°37' E 015°26'127 4.9
2015-Feb-17 09:33N 40°29' E 014°09'1211.6
2015-Feb-17 08:34N 40°40' E 014°13'11 9.6
2015-Feb-17 07:27N 40°50' E 014°17'0 0.0
2015-Feb-17 06:31N 40°50' E 014°17'0 0.0
2015-Feb-17 04:10N 40°50' E 014°17'0 0.0
2015-Feb-17 00:33N 40°50' E 014°17'0 0.0
2015-Feb-16 23:32N 40°50' E 014°17'0 0.0
2015-Feb-16 22:32N 40°50' E 014°17'0 0.0
2015-Feb-16 21:31N 40°50' E 014°17'0 0.0
2015-Feb-16 20:33N 40°50' E 014°17'0 0.0
2015-Feb-16 19:33N 40°50' E 014°17'0 0.0
2015-Feb-16 18:20N 40°50' E 014°17'0 0.0
2015-Feb-16 15:19N 40°50' E 014°17'0 0.0
2015-Feb-16 14:17N 40°50' E 014°17'0 0.0
2015-Feb-16 13:32N 40°50' E 014°17'1 0.5
2015-Feb-16 12:33N 40°50' E 014°17'4 4.4
2015-Feb-16 11:33N 40°46' E 014°15'1515.3
2015-Feb-16 10:33N 40°37' E 013°59'2221.9
2015-Feb-16 09:33N 40°42' E 013°31'261 7.9
2015-Feb-15 00:33N 44°06' E 009°51'0 0.0
2015-Feb-14 23:33N 44°06' E 009°51'0 0.0
2015-Feb-14 22:33N 44°06' E 009°51'0 0.0
2015-Feb-14 21:33N 44°06' E 009°51'0 0.0
2015-Feb-14 20:33N 44°06' E 009°51'0 0.0
2015-Feb-14 19:33N 44°06' E 009°51'0 0.0
2015-Feb-14 18:33N 44°06' E 009°51'0 0.0
2015-Feb-14 17:33N 44°06' E 009°51'0 0.0
2015-Feb-14 16:33N 44°06' E 009°51'0 0.0
2015-Feb-14 15:33N 44°06' E 009°51'0 0.0
2015-Feb-14 14:33N 44°06' E 009°51'0 0.3
2015-Feb-14 13:33N 44°06' E 009°51'8 8.0
2015-Feb-14 12:33N 43°59' E 009°56'1 1.4
2015-Feb-14 11:33N 43°58' E 009°56'1212.2
2015-Feb-14 10:33N 43°53' E 009°40'1615.5
2015-Feb-14 09:34N 43°46' E 009°21'1615.6
2015-Feb-14 08:34N 43°40' E 009°02'1515.3
2015-Feb-14 07:33N 43°33' E 008°43'6516.0
2015-Feb-14 03:29N 43°04' E 007°22'1516.3
2015-Feb-14 02:34N 42°57' E 007°04'1616.1
2015-Feb-14 01:33N 42°50' E 006°44'1616.0
2015-Feb-14 00:32N 42°45' E 006°23'5914.7
2015-Feb-13 20:31N 43°06' E 005°08'1717.3
2015-Feb-13 19:33N 43°21' E 004°58'7 7.2
2015-Feb-13 18:33N 43°25' E 004°50'0 0.0
2015-Feb-13 17:34N 43°25' E 004°50'0 0.0
2015-Feb-13 16:33N 43°25' E 004°50'0 0.0
2015-Feb-13 15:34N 43°25' E 004°50'0 0.0
2015-Feb-13 14:33N 43°25' E 004°50'0 0.0
2015-Feb-13 13:34N 43°25' E 004°50'0 0.0
2015-Feb-13 12:34N 43°25' E 004°50'0 0.0
2015-Feb-13 11:34N 43°25' E 004°50'0 0.0
2015-Feb-13 10:33N 43°25' E 004°50'0 0.0
2015-Feb-13 09:33N 43°25' E 004°50'0 0.0
2015-Feb-13 08:34N 43°25' E 004°50'0 0.0
2015-Feb-13 07:33N 43°25' E 004°50'0 0.0
2015-Feb-13 06:33N 43°25' E 004°50'0 0.0
2015-Feb-13 05:34N 43°25' E 004°50'0 0.0
2015-Feb-13 04:34N 43°25' E 004°50'0 0.0
2015-Feb-13 03:34N 43°25' E 004°50'2 2.5
2015-Feb-13 02:34N 43°24' E 004°53'9 9.1
2015-Feb-13 01:33N 43°17' E 005°00'1212.3
2015-Feb-13 00:33N 43°05' E 004°55'3013.6
2015-Feb-12 22:23N 42°43' E 004°29'1413.7
2015-Feb-12 21:19N 42°31' E 004°16'3813.8
2015-Feb-12 18:33N 42°02' E 003°43'1414.3
2015-Feb-12 17:33N 41°52' E 003°29'1615.4
2015-Feb-12 16:32N 41°41' E 003°14'1514.6
2015-Feb-12 15:31N 41°30' E 003°00'1714.8
2015-Feb-12 14:23N 41°19' E 002°44'1214.2
2015-Feb-12 13:32N 41°10' E 002°33'1414.4
2015-Feb-12 12:33N 41°00' E 002°20'1515.0
2015-Feb-12 11:33N 40°48' E 002°07'1514.9
2015-Feb-12 10:33N 40°39' E 001°52'1514.7
2015-Feb-12 09:33N 40°29' E 001°38'1414.6
2015-Feb-12 08:33N 40°18' E 001°26'1414.1
2015-Feb-12 07:33N 40°07' E 001°14'1414.4
2015-Feb-12 06:33N 39°56' E 001°02'1414.0
2015-Feb-12 05:34N 39°46' E 000°49'5613.9
2015-Feb-12 01:34N 39°26' W 000°18'1 1.3
2015-Feb-12 00:32N 39°26' W 000°19'0 0.0
2015-Feb-11 23:32N 39°26' W 000°19'0 0.0
2015-Feb-11 22:32N 39°26' W 000°19'0 0.0
2015-Feb-11 21:33N 39°26' W 000°19'0 0.0
2015-Feb-11 20:33N 39°26' W 000°19'0 0.0
2015-Feb-11 19:33N 39°26' W 000°19'0 0.0
2015-Feb-11 18:33N 39°26' W 000°19'0 0.0
2015-Feb-11 17:30N 39°26' W 000°19'0 0.0
2015-Feb-11 16:32N 39°26' W 000°19'0 0.0
2015-Feb-11 15:33N 39°26' W 000°19'0 0.0
2015-Feb-11 14:33N 39°26' W 000°19'0 0.0
2015-Feb-11 13:33N 39°26' W 000°19'0 0.0
2015-Feb-11 12:34N 39°26' W 000°19'0 0.0
2015-Feb-11 11:33N 39°26' W 000°19'0 0.0
2015-Feb-11 10:33N 39°26' W 000°19'0 0.0
2015-Feb-11 09:33N 39°26' W 000°19'0 0.0
2015-Feb-11 08:33N 39°26' W 000°19'0 0.0
2015-Feb-11 07:33N 39°26' W 000°19'0 0.0
2015-Feb-11 06:33N 39°26' W 000°19'0 0.0
2015-Feb-11 05:33N 39°26' W 000°19'3 2.9
2015-Feb-11 04:33N 39°24' W 000°17'1 0.3
2015-Feb-11 02:24N 39°24' W 000°16'  

Dump ship's entire track history